Hampton Beach, New Hampshire
Current Conditions -  °F | °C
As of 12:58 PM on Friday 21 Nov 2014 (Local Time) from KPSM Reporting Station
Scattered Clouds Scattered Clouds  
Wind Chill: 21°   Ceiling: Unl
Heat Index: 33°   Visibility: 10mi
Dew Point:   Wind: 20mph
Humidity: 37%   Direction: 310°NW
Pressure: 30.09"   Gusts: 29mph
Location:  42.9284°N, 70.8566°W
Report Text: KPSM 211758Z 31017G25KT 10SM FEW044 SCT060 01/M13 A3009 RMK AO2A PK WND 31026/06 SLP194 T00051128 10011 21034 52016
Loading
Personal Weather Stations






























Interactive Weather Map New forecast layout! Learn more

10-Day Weather Forecast

Advertisements
Track Severe Weather on mobile